createdAt,value
2018-10-11T00:03:29.528Z,9.70
2018-10-11T00:08:59.518Z,12.77
2018-10-11T00:14:30.110Z,9.47
2018-10-11T00:19:59.724Z,13.70
2018-10-11T00:25:30.167Z,11.93
2018-10-11T00:30:59.642Z,11.67
2018-10-11T00:36:29.120Z,13.77
2018-10-11T00:41:58.645Z,11.10
2018-10-11T00:47:28.145Z,13.70
2018-10-11T00:52:58.649Z,12.93
2018-10-11T00:58:28.116Z,8.40
2018-10-11T01:03:57.640Z,14.90
2018-10-11T01:09:33.052Z,11.90
2018-10-11T01:15:02.636Z,10.03
2018-10-11T01:20:37.707Z,9.53
2018-10-11T01:26:07.197Z,9.87
2018-10-11T01:31:36.754Z,8.37
2018-10-11T01:37:06.218Z,10.83
2018-10-11T01:42:35.846Z,11.30
2018-10-11T01:48:06.500Z,10.43
2018-10-11T01:53:35.964Z,13.63
2018-10-11T01:59:05.478Z,14.70
2018-10-11T02:04:35.072Z,12.23
2018-10-11T02:10:04.642Z,10.37
2018-10-11T02:15:34.144Z,10.30
2018-10-11T02:21:03.626Z,10.93
2018-10-11T02:26:33.100Z,9.93
2018-10-11T02:32:17.687Z,10.67
2018-10-11T02:37:47.312Z,15.23
2018-10-11T02:43:17.604Z,11.43
2018-10-11T02:48:48.020Z,10.10
2018-10-11T02:54:17.679Z,11.87
2018-10-11T02:59:47.128Z,9.97
2018-10-11T03:05:18.856Z,10.70
2018-10-11T03:10:49.333Z,8.40
2018-10-11T03:16:18.860Z,12.07
2018-10-11T03:21:48.371Z,9.73
2018-10-11T03:27:17.852Z,8.40
2018-10-11T03:32:47.328Z,9.57
2018-10-11T03:38:16.762Z,10.43
2018-10-11T03:43:46.245Z,8.47
2018-10-11T03:49:21.728Z,10.00
2018-10-11T03:54:51.139Z,13.63
2018-10-11T04:00:20.625Z,11.07
2018-10-11T04:05:50.108Z,9.07
2018-10-11T04:11:20.590Z,10.43
2018-10-11T04:16:50.242Z,17.17
2018-10-11T04:22:22.414Z,10.63
2018-10-11T04:27:59.367Z,11.87
2018-10-11T04:33:31.013Z,10.13
2018-10-11T04:39:00.617Z,13.60
2018-10-11T04:44:35.627Z,12.17
2018-10-11T04:50:05.096Z,22.40
2018-10-11T04:55:43.624Z,16.70
2018-10-11T05:01:13.281Z,15.30
2018-10-11T05:06:43.015Z,14.73
2018-10-11T05:12:13.090Z,17.43
2018-10-11T05:17:45.583Z,27.73
2018-10-11T05:23:14.987Z,27.33
2018-10-11T05:28:55.865Z,24.87
2018-10-11T05:34:25.296Z,20.70
2018-10-11T05:39:54.736Z,17.07
2018-10-11T05:45:25.644Z,16.40
2018-10-11T05:50:55.527Z,17.93
2018-10-11T05:56:27.717Z,37.93
2018-10-11T06:01:57.211Z,49.30
2018-10-11T06:07:26.733Z,34.63
2018-10-11T06:12:56.386Z,19.93
2018-10-11T06:18:26.003Z,16.10
2018-10-11T06:23:55.730Z,20.93
2018-10-11T06:29:25.155Z,25.80
2018-10-11T06:34:54.605Z,14.97
2018-10-11T06:40:24.214Z,16.30
2018-10-11T06:45:53.672Z,15.57
2018-10-11T06:51:23.059Z,11.10
2018-10-11T06:56:52.511Z,14.60
2018-10-11T07:02:21.952Z,13.20
2018-10-11T07:07:51.375Z,8.20
2018-10-11T07:13:21.838Z,12.20
2018-10-11T07:18:51.516Z,8.03
2018-10-11T07:24:20.867Z,7.00
2018-10-11T07:29:50.275Z,5.33
2018-10-11T07:35:19.753Z,8.90
2018-10-11T07:40:49.453Z,6.30
2018-10-11T07:46:19.001Z,5.10
2018-10-11T07:51:55.043Z,5.00
2018-10-11T07:57:24.528Z,6.87
2018-10-11T08:02:53.958Z,6.00
2018-10-11T08:08:23.402Z,5.43
2018-10-11T08:13:52.726Z,5.93
2018-10-11T08:19:22.315Z,5.10
2018-10-11T08:24:51.804Z,4.70
2018-10-11T08:30:21.026Z,6.30
2018-10-11T08:35:50.545Z,5.33
2018-10-11T08:41:19.963Z,7.67
2018-10-11T08:46:49.536Z,7.40
2018-10-11T08:52:18.968Z,8.07
2018-10-11T08:57:48.395Z,5.30
2018-10-11T09:03:18.001Z,7.10
2018-10-11T09:08:47.337Z,5.30
2018-10-11T09:14:16.864Z,5.27
2018-10-11T09:19:46.252Z,7.03
2018-10-11T09:25:15.988Z,4.80
2018-10-11T09:30:44.928Z,4.70
2018-10-11T09:36:14.807Z,6.70
2018-10-11T09:41:44.145Z,4.90
2018-10-11T09:47:13.561Z,4.10
2018-10-11T09:52:42.962Z,4.43
2018-10-11T09:58:12.325Z,4.50
2018-10-11T10:03:41.754Z,6.37
2018-10-11T10:09:11.206Z,6.17
2018-10-11T10:14:41.413Z,9.43
2018-10-11T10:20:10.797Z,4.33
2018-10-11T10:25:40.246Z,3.30
2018-10-11T10:31:09.833Z,7.93
2018-10-11T10:36:39.273Z,5.60
2018-10-11T10:42:08.752Z,5.37
2018-10-11T10:47:38.208Z,4.37
2018-10-11T10:53:07.925Z,7.67
2018-10-11T10:58:37.325Z,5.00
2018-10-11T11:04:06.825Z,5.73
2018-10-11T11:09:36.321Z,3.80
2018-10-11T11:15:05.870Z,6.80
2018-10-11T11:20:35.168Z,5.50
2018-10-11T11:26:04.635Z,10.33
2018-10-11T11:31:34.141Z,5.73
2018-10-11T11:37:05.592Z,5.80
2018-10-11T11:42:35.152Z,5.50
2018-10-11T11:48:05.003Z,7.03
2018-10-11T11:53:34.351Z,6.30
2018-10-11T11:59:03.810Z,4.50
2018-10-11T12:04:33.250Z,7.10
2018-10-11T12:10:02.719Z,7.97
2018-10-11T12:15:33.464Z,4.40
2018-10-11T12:21:03.824Z,7.40
2018-10-11T12:26:33.249Z,10.30
2018-10-11T12:32:02.628Z,5.47
2018-10-11T12:37:32.100Z,7.50
2018-10-11T12:43:01.623Z,2.80
2018-10-11T12:48:31.022Z,8.60
2018-10-11T12:54:01.489Z,5.30
2018-10-11T12:59:31.849Z,6.10
2018-10-11T13:05:01.247Z,7.53
2018-10-11T13:10:30.817Z,6.40
2018-10-11T13:16:02.838Z,8.30
2018-10-11T13:21:29.809Z,3.23
2018-10-11T13:26:59.378Z,9.73
2018-10-11T13:32:29.966Z,3.47
2018-10-11T13:37:59.699Z,10.77
2018-10-11T13:43:32.548Z,3.30
2018-10-11T13:49:01.965Z,5.33
2018-10-11T13:54:31.425Z,7.13
2018-10-11T14:00:00.890Z,4.20
2018-10-11T14:05:30.350Z,6.40
2018-10-11T14:11:01.414Z,4.23
2018-10-11T14:16:30.817Z,3.97
2018-10-11T14:22:00.153Z,11.10
2018-10-11T14:27:29.680Z,8.77
2018-10-11T14:32:58.957Z,4.57
2018-10-11T14:38:31.973Z,4.10
2018-10-11T14:44:01.381Z,5.40
2018-10-11T14:49:30.886Z,6.30
2018-10-11T14:55:00.243Z,8.27
2018-10-11T15:00:32.375Z,5.40
2018-10-11T15:06:03.965Z,6.90
2018-10-11T15:11:33.687Z,6.47
2018-10-11T15:17:03.090Z,9.43
2018-10-11T15:22:33.686Z,7.23
2018-10-11T15:28:03.008Z,8.27
2018-10-11T15:33:32.477Z,14.63
2018-10-11T15:39:04.228Z,7.27
2018-10-11T15:44:33.681Z,7.43
2018-10-11T15:50:03.190Z,11.83
2018-10-11T15:55:32.549Z,10.68
2018-10-11T16:01:01.880Z,20.23
2018-10-11T16:06:31.296Z,10.70
2018-10-11T16:12:00.737Z,7.10
2018-10-11T16:17:30.243Z,12.97
2018-10-11T16:22:59.548Z,8.43
2018-10-11T16:28:29.005Z,15.70
2018-10-11T16:33:59.313Z,10.63
2018-10-11T16:39:30.740Z,9.77
2018-10-11T16:45:00.375Z,11.70
2018-10-11T16:50:29.884Z,13.27
2018-10-11T16:55:59.325Z,12.43
2018-10-11T17:01:30.732Z,10.20
2018-10-11T17:07:00.018Z,15.73
2018-10-11T17:12:29.584Z,19.77
2018-10-11T17:17:58.861Z,15.65
2018-10-11T17:23:29.295Z,13.70
2018-10-11T17:28:58.661Z,18.00
2018-10-11T17:34:28.182Z,13.53
2018-10-11T17:39:58.524Z,19.77
2018-10-11T17:45:27.908Z,17.00
2018-10-11T17:50:57.356Z,38.43
2018-10-11T17:56:26.666Z,20.47
2018-10-11T18:01:56.368Z,24.23
2018-10-11T18:07:26.137Z,12.07
2018-10-11T18:12:55.556Z,13.47
2018-10-11T18:18:24.805Z,13.67
2018-10-11T18:23:55.349Z,14.03
2018-10-11T18:29:24.756Z,16.65
2018-10-11T18:34:54.041Z,13.97
2018-10-11T18:40:23.630Z,14.05
2018-10-11T18:45:53.109Z,13.35
2018-10-11T18:51:22.534Z,13.40
2018-10-11T18:56:53.008Z,17.10
2018-10-11T19:02:22.434Z,16.25
2018-10-11T19:07:51.766Z,15.35
2018-10-11T19:13:21.178Z,14.20
2018-10-11T19:18:50.531Z,19.20
2018-10-11T19:24:19.900Z,14.45
2018-10-11T19:29:49.264Z,17.83
2018-10-11T19:35:18.823Z,11.50
2018-10-11T19:40:48.238Z,17.15
2018-10-11T19:46:17.577Z,19.02
2018-10-11T19:51:47.024Z,15.50
2018-10-11T19:57:16.351Z,17.55
2018-10-11T20:02:46.515Z,15.73
2018-10-11T20:08:16.054Z,20.77
2018-10-11T20:13:45.158Z,19.00
2018-10-11T20:19:14.513Z,21.07
2018-10-11T20:24:43.804Z,23.23
2018-10-11T20:30:13.033Z,31.52
2018-10-11T20:35:42.433Z,39.00
2018-10-11T20:41:11.685Z,29.75
2018-10-11T20:46:43.189Z,24.40
2018-10-11T20:52:12.532Z,20.17
2018-10-11T20:57:41.912Z,20.73
2018-10-11T21:03:11.287Z,19.30
2018-10-11T21:08:40.860Z,18.13
2018-10-11T21:14:11.301Z,15.48
2018-10-11T21:19:41.127Z,19.37
2018-10-11T21:25:10.720Z,23.55
2018-10-11T21:30:41.698Z,25.63
2018-10-11T21:36:14.653Z,18.77
2018-10-11T21:41:44.605Z,12.67
2018-10-11T21:47:14.029Z,13.83
2018-10-11T21:52:45.532Z,14.80
2018-10-11T21:58:15.852Z,13.70
2018-10-11T22:03:45.219Z,13.20
2018-10-11T22:09:14.567Z,16.93
2018-10-11T22:14:43.980Z,13.10
2018-10-11T22:20:14.545Z,21.20
2018-10-11T22:25:43.890Z,15.43
2018-10-11T22:31:13.787Z,11.63
2018-10-11T22:36:43.292Z,10.90
2018-10-11T22:42:12.875Z,20.17
2018-10-11T22:47:42.297Z,12.60
2018-10-11T22:53:11.733Z,16.03
2018-10-11T22:58:41.274Z,14.87
2018-10-11T23:04:10.645Z,13.40
2018-10-11T23:09:39.991Z,15.00
2018-10-11T23:15:09.592Z,15.60
2018-10-11T23:20:38.980Z,14.80
2018-10-11T23:26:08.448Z,18.90
2018-10-11T23:31:37.854Z,14.43
2018-10-11T23:37:07.463Z,12.53
2018-10-11T23:42:36.796Z,19.20
2018-10-11T23:48:06.147Z,11.87
2018-10-11T23:53:35.549Z,14.60
2018-10-11T23:59:05.017Z,16.83
